Terminal Aerodrome Forecast
Issued by NWS Twin Cities, MN

Home | Current Version | Previous Version | Text Only | Print | Product List | Glossary Off
Versions: 1 2 3 4 5 6 7 8 9 10 11 12 13 14 15 16 17 18 19 20 21 22 23 24

000
FTUS43 KMPX 192300
TAFMSP
TAF
KMSP 192339Z 2000/2106 30007KT P6SM VCSH SCT080
      TEMPO 2000/2001 BKN080
     FM200100 02003KT P6SM SCT250
     FM200800 VRB02KT 5SM BR FEW007
      TEMPO 2010/2013 2SM BR BKN007
     FM201400 14008KT P6SM SCT050 BKN250
     FM210000 14011KT P6SM SCT060 BKN120=

USA.gov is the U.S. government's official web portal to all federal, state and local government web resources and services.